Terminal Aerodrome Forecast
Issued by NWS

Home | Current Version | Previous Version | Text Only | Print | Product List | Glossary On
Versions: 1 2 3 4 5 6 7 8 9 10 11 12 13 14 15 16 17 18 19 20 21 22 23 24
000
FTUS43 KPAH 040318 AAA
TAFCGI
TAF AMD
KCGI 040318Z 0403/0424 36006KT 1/2SM RA FG BKN015
      TEMPO 0403/0407 1SM -RA BR
     FM041200 01013G20KT 4SM -SNPL BR OVC005=

USA.gov is the U.S. government's official web portal to all federal, state and local government web resources and services.